Time;durP1;ratioP1;P1;durP2;ratioP2;P2;SDS_P1;SDS_P2;PMS_P1;PMS_P2;Temp;Humidity;BMP_temperature;BMP_pressure;BME280_temperature;BME280_humidity;BME280_pressure;Samples;Min_cycle;Max_cycle;Signal;HPM_P1;HPM_P2
2023/01/30 00:01:47;;;;;;;;;;;;;;;22.22;16.98;98217.84;5056194;28;19920;-85
2023/01/30 00:04:13;;;;;;;;;;;;;;;22.37;17.12;98207.28;5056313;28;19917;-84
2023/01/30 00:06:40;;;;;;;;;;;;;;;22.45;17.41;98200.38;5072251;28;20069;-85
2023/01/30 00:09:06;;;;;;;;;;;;;;;22.59;16.20;98203.75;5076190;28;19966;-85
2023/01/30 00:11:32;;;;;;;;;;;;;;;22.46;16.47;98194.38;5061023;28;19921;-84
2023/01/30 00:14:00;;;;;;;;;;;;;;;22.18;17.05;98191.13;5056284;28;19924;-84
2023/01/30 00:16:26;;;;;;;;;;;;;;;22.26;16.90;98182.25;5056020;28;20011;-85
2023/01/30 00:18:52;;;;;;;;;;;;;;;22.42;16.85;98171.25;5056114;28;19924;-85
2023/01/30 00:21:18;;;;;;;;;;;;;;;22.65;16.63;98168.53;5056053;28;19917;-85
2023/01/30 00:23:44;;;;;;;;;;;;;;;22.71;16.91;98166.03;5056273;28;19913;-85
2023/01/30 00:26:10;;;;;;;;;;;;;;;22.60;16.80;98163.41;5055787;28;19917;-85
2023/01/30 00:28:36;;;;;;;;;;;;;;;22.35;17.20;98148.97;5070510;28;19921;-84
2023/01/30 00:31:02;;;;;;;;;;;;;;;22.54;16.83;98142.66;5075633;28;19963;-85
2023/01/30 00:33:29;;;;;;;;;;;;;;;22.68;16.90;98134.09;5064924;28;20296;-85
2023/01/30 00:35:55;;;;;;;;;;;;;;;22.80;16.64;98138.31;5055625;28;20333;-85
2023/01/30 00:38:22;;;;;;;;;;;;;;;22.74;16.87;98123.22;5064563;28;19917;-85
2023/01/30 00:40:48;;;;;;;;;;;;;;;22.66;16.75;98127.34;5075499;28;19919;-85
2023/01/30 00:48:46;;;;;;;;;;;;;;;22.44;17.13;98098.06;5055555;28;20379;-85
2023/01/30 00:51:12;;;;;;;;;;;;;;;22.49;17.54;98092.81;5055128;28;20261;-85
2023/01/30 00:53:38;;;;;;;;;;;;;;;22.25;16.77;98084.75;5055511;28;19927;-84
2023/01/30 00:56:05;;;;;;;;;;;;;;;21.95;17.28;98078.00;5064272;28;19921;-84
2023/01/30 00:58:32;;;;;;;;;;;;;;;22.18;17.36;98062.50;5074901;28;19970;-85
2023/01/30 01:00:58;;;;;;;;;;;;;;;22.38;17.03;98061.38;5073140;28;20346;-85
2023/01/30 01:03:24;;;;;;;;;;;;;;;22.57;16.68;98059.88;5054771;28;19917;-85
2023/01/30 01:05:50;;;;;;;;;;;;;;;22.33;16.64;98049.91;5054838;28;19924;-85
2023/01/30 01:08:16;;;;;;;;;;;;;;;22.40;16.73;98041.38;5054964;28;19939;-85
2023/01/30 01:10:42;;;;;;;;;;;;;;;22.45;16.62;98038.13;5069999;28;19916;-85
2023/01/30 01:13:09;;;;;;;;;;;;;;;22.32;16.83;98042.69;5074944;28;19920;-85
2023/01/30 01:15:35;;;;;;;;;;;;;;;22.15;17.13;98038.19;5075132;28;19916;-84
2023/01/30 01:18:01;;;;;;;;;;;;;;;21.73;17.22;98037.50;5072946;28;19964;-85
2023/01/30 01:20:27;;;;;;;;;;;;;;;21.80;17.29;98031.03;5054973;28;19916;-85
2023/01/30 01:22:54;;;;;;;;;;;;;;;22.01;17.09;98020.38;5054814;28;19971;-85
2023/01/30 01:25:21;;;;;;;;;;;;;;;21.95;16.66;98015.69;5054631;28;20386;-85
2023/01/30 01:27:47;;;;;;;;;;;;;;;21.89;16.54;98011.81;5055214;28;19923;-85
2023/01/30 01:30:13;;;;;;;;;;;;;;;21.83;17.00;98013.44;5054163;28;19925;-85
2023/01/30 01:32:39;;;;;;;;;;;;;;;21.50;16.47;98005.88;5054364;28;19925;-85
2023/01/30 01:35:05;;;;;;;;;;;;;;;20.94;16.91;97999.75;5055489;28;19924;-84
2023/01/30 01:37:31;;;;;;;;;;;;;;;20.77;17.11;97999.94;5054371;28;19940;-84
2023/01/30 01:42:42;;;;;;;;;;;;;;;20.42;17.97;97996.25;5054314;28;19924;-85
2023/01/30 01:45:11;;;;;;;;;;;;;;;20.40;17.55;97979.13;5054175;28;20387;-84
2023/01/30 01:47:43;;;;;;;;;;;;;;;19.92;17.54;97981.09;5054473;28;19927;-85
2023/01/30 01:50:15;;;;;;;;;;;;;;;20.12;17.35;97970.97;5054423;28;19924;-84
2023/01/30 01:52:41;;;;;;;;;;;;;;;20.09;17.69;97959.88;5059468;28;20264;-85
2023/01/30 01:55:08;;;;;;;;;;;;;;;20.26;17.38;97956.94;5063160;28;19927;-85
2023/01/30 01:57:38;;;;;;;;;;;;;;;20.37;17.09;97962.44;5054339;28;19917;-85
2023/01/30 02:00:12;;;;;;;;;;;;;;;20.41;16.83;97958.41;5053813;28;19927;-85
2023/01/30 02:02:51;;;;;;;;;;;;;;;20.44;17.13;97940.06;5053886;28;20299;-85
2023/01/30 02:05:19;;;;;;;;;;;;;;;20.67;16.97;97935.47;5058725;28;20372;-85
2023/01/30 02:07:45;;;;;;;;;;;;;;;20.71;16.51;97929.81;5071961;28;20011;-86
2023/01/30 02:10:14;;;;;;;;;;;;;;;20.69;16.78;97929.44;5054914;28;20012;-85
2023/01/30 02:12:41;;;;;;;;;;;;;;;20.50;16.59;97924.47;5053845;28;20395;-85
2023/01/30 02:15:07;;;;;;;;;;;;;;;20.69;16.83;97912.72;5053348;28;19943;-85
2023/01/30 02:17:33;;;;;;;;;;;;;;;20.89;16.13;97913.66;5053420;28;19924;-85
2023/01/30 02:20:03;;;;;;;;;;;;;;;20.57;16.40;97913.25;5054098;28;19921;-85
2023/01/30 02:22:29;;;;;;;;;;;;;;;20.11;16.54;97910.06;5053843;28;19916;-85
2023/01/30 02:24:55;;;;;;;;;;;;;;;19.67;17.04;97908.84;5053935;28;19924;-84
2023/01/30 02:27:35;;;;;;;;;;;;;;;19.62;17.02;97906.47;5067281;28;19916;-85
2023/01/30 02:30:01;;;;;;;;;;;;;;;19.19;17.56;97902.31;5073100;28;20011;-85
2023/01/30 02:32:45;;;;;;;;;;;;;;;19.03;17.99;97913.94;5071429;28;19971;-85
2023/01/30 02:35:17;;;;;;;;;;;;;;;19.22;18.09;97912.66;5062257;28;19913;-85
2023/01/30 02:37:55;;;;;;;;;;;;;;;19.52;17.71;97910.13;5072969;28;19917;-85
2023/01/30 02:40:53;;;;;;;;;;;;;;;19.93;17.34;97915.78;5073675;28;19912;-85
2023/01/30 02:43:37;;;;;;;;;;;;;;;20.01;16.95;97903.38;5045197;28;19939;-85
2023/01/30 02:46:03;;;;;;;;;;;;;;;20.08;17.25;97888.59;5053412;28;19955;-85
2023/01/30 02:48:34;;;;;;;;;;;;;;;20.25;16.97;97899.63;5053345;28;19917;-85
2023/01/30 02:51:20;;;;;;;;;;;;;;;20.21;17.07;97886.91;5053426;28;19917;-85
2023/01/30 02:53:47;;;;;;;;;;;;;;;19.80;17.10;97889.63;5043067;28;19917;-85
2023/01/30 02:56:13;;;;;;;;;;;;;;;18.99;18.00;97879.78;5053703;28;19923;-85
2023/01/30 02:58:43;;;;;;;;;;;;;;;18.93;18.19;97880.56;5052229;28;20024;-85
2023/01/30 03:01:18;;;;;;;;;;;;;;;18.65;18.69;97877.94;5064822;28;20380;-85
2023/01/30 03:04:07;;;;;;;;;;;;;;;18.93;18.09;97880.56;5072805;28;19963;-85
2023/01/30 03:06:36;;;;;;;;;;;;;;;19.02;18.08;97876.16;5069583;28;20288;-85
2023/01/30 03:09:04;;;;;;;;;;;;;;;18.96;18.24;97875.00;5053163;28;20307;-85
2023/01/30 03:11:40;;;;;;;;;;;;;;;19.40;18.24;97866.03;5053114;28;19924;-85
2023/01/30 03:14:09;;;;;;;;;;;;;;;19.66;17.80;97856.31;5053104;28;19917;-85
2023/01/30 03:16:37;;;;;;;;;;;;;;;20.06;17.48;97855.56;5053184;28;20261;-85
2023/01/30 03:19:05;;;;;;;;;;;;;;;20.49;17.14;97848.38;5053724;28;20012;-85
2023/01/30 03:21:31;;;;;;;;;;;;;;;20.77;16.87;97852.06;5053570;28;19913;-85
2023/01/30 03:23:57;;;;;;;;;;;;;;;20.68;16.77;97839.38;5053053;28;19921;-85
2023/01/30 03:26:25;;;;;;;;;;;;;;;20.57;16.95;97846.28;5053335;28;19919;-85
2023/01/30 03:28:51;;;;;;;;;;;;;;;20.72;17.25;97842.16;5053799;28;19925;-85
2023/01/30 03:31:17;;;;;;;;;;;;;;;20.96;16.94;97832.66;5057227;28;19928;-85
2023/01/30 03:33:43;;;;;;;;;;;;;;;21.09;16.72;97827.34;5056431;28;19916;-85
2023/01/30 03:36:09;;;;;;;;;;;;;;;21.18;16.56;97819.22;5056993;28;20388;-85
2023/01/30 03:38:36;;;;;;;;;;;;;;;21.11;16.32;97820.13;5056523;28;19917;-85
2023/01/30 03:41:02;;;;;;;;;;;;;;;20.60;17.02;97826.75;5056556;28;19917;-85
2023/01/30 03:43:28;;;;;;;;;;;;;;;19.67;17.57;97835.63;5055031;28;19966;-85
2023/01/30 03:45:54;;;;;;;;;;;;;;;19.52;17.97;97826.56;5056608;28;19916;-85
2023/01/30 03:48:20;;;;;;;;;;;;;;;19.59;17.83;97809.81;5056551;28;19921;-85
2023/01/30 03:50:47;;;;;;;;;;;;;;;19.77;18.02;97804.06;5056783;28;19923;-85
2023/01/30 03:53:13;;;;;;;;;;;;;;;20.02;17.75;97799.84;5076536;28;19963;-85
2023/01/30 03:55:39;;;;;;;;;;;;;;;19.98;17.71;97796.31;5077157;28;19975;-85
2023/01/30 03:58:05;;;;;;;;;;;;;;;20.33;17.57;97797.16;5076162;28;19917;-85
2023/01/30 04:00:31;;;;;;;;;;;;;;;20.36;17.26;97794.34;5076265;28;19931;-85
2023/01/30 04:02:57;;;;;;;;;;;;;;;20.30;17.34;97789.66;5074808;28;19924;-85
2023/01/30 04:05:23;;;;;;;;;;;;;;;20.45;17.29;97779.91;5070182;28;20288;-85
2023/01/30 04:07:50;;;;;;;;;;;;;;;20.53;17.06;97773.03;5056393;28;20364;-85
2023/01/30 04:10:18;;;;;;;;;;;;;;;20.59;16.87;97774.16;5076137;28;19917;-85
2023/01/30 04:12:45;;;;;;;;;;;;;;;19.89;17.34;97782.09;5075901;28;19917;-85
2023/01/30 04:15:11;;;;;;;;;;;;;;;19.53;17.60;97769.69;5075929;28;19923;-85
2023/01/30 04:17:37;;;;;;;;;;;;;;;19.86;17.70;97771.75;5075912;28;19942;-85
2023/01/30 04:20:04;;;;;;;;;;;;;;;20.30;17.28;97773.72;5076072;28;19923;-85
2023/01/30 04:22:30;;;;;;;;;;;;;;;20.63;17.13;97772.91;5076119;28;20003;-85
2023/01/30 04:24:56;;;;;;;;;;;;;;;20.81;16.95;97767.09;5072713;28;19952;-85
2023/01/30 04:27:22;;;;;;;;;;;;;;;20.60;17.05;97759.00;5056279;28;20376;-85
2023/01/30 04:29:48;;;;;;;;;;;;;;;20.68;16.75;97766.06;5055684;28;19932;-85
2023/01/30 04:32:14;;;;;;;;;;;;;;;20.78;16.55;97762.34;5055515;28;19917;-85
2023/01/30 04:34:42;;;;;;;;;;;;;;;20.49;16.63;97753.56;5055838;28;19939;-85
2023/01/30 04:37:08;;;;;;;;;;;;;;;20.41;16.89;97754.88;5055581;28;19924;-85
2023/01/30 04:39:34;;;;;;;;;;;;;;;20.43;16.96;97751.66;5073982;28;19916;-85
2023/01/30 04:42:00;;;;;;;;;;;;;;;20.63;16.79;97739.41;5072906;28;19921;-85
2023/01/30 04:44:26;;;;;;;;;;;;;;;20.36;16.94;97738.59;5055741;28;20332;-85
2023/01/30 04:46:52;;;;;;;;;;;;;;;20.10;17.44;97744.03;5055557;28;20011;-85
2023/01/30 04:49:18;;;;;;;;;;;;;;;20.30;17.19;97747.84;5055182;28;19923;-85
2023/01/30 04:51:44;;;;;;;;;;;;;;;20.44;17.15;97737.28;5055508;28;19916;-85
2023/01/30 04:54:11;;;;;;;;;;;;;;;20.68;17.12;97738.97;5055418;28;19923;-85
2023/01/30 04:56:37;;;;;;;;;;;;;;;20.71;16.63;97730.94;5055419;28;20015;-85
2023/01/30 04:59:03;;;;;;;;;;;;;;;20.64;17.00;97720.69;5057768;28;20396;-85
2023/01/30 05:01:30;;;;;;;;;;;;;;;20.72;17.01;97718.59;5075571;28;19923;-85
2023/01/30 05:03:56;;;;;;;;;;;;;;;20.48;16.98;97720.50;5066229;28;19917;-85
2023/01/30 05:06:22;;;;;;;;;;;;;;;19.90;17.66;97727.97;5054772;28;19924;-85
2023/01/30 05:08:49;;;;;;;;;;;;;;;20.23;17.72;97726.41;5054771;28;19964;-85
2023/01/30 05:11:15;;;;;;;;;;;;;;;20.21;17.49;97714.06;5055079;28;19923;-85
2023/01/30 05:13:42;;;;;;;;;;;;;;;20.06;17.71;97727.38;5054961;28;19917;-85
2023/01/30 05:16:09;;;;;;;;;;;;;;;20.52;17.52;97718.47;5055731;28;19994;-85
2023/01/30 05:18:35;;;;;;;;;;;;;;;20.73;16.97;97717.38;5054942;28;20292;-85
2023/01/30 05:21:08;;;;;;;;;;;;;;;20.62;17.34;97723.13;5054894;28;19970;-85
2023/01/30 05:23:34;;;;;;;;;;;;;;;20.96;17.23;97723.00;5054493;28;20373;-85
2023/01/30 05:26:01;;;;;;;;;;;;;;;20.92;16.81;97722.28;5054845;28;20379;-85
2023/01/30 05:28:27;;;;;;;;;;;;;;;21.01;16.94;97719.75;5054716;28;19917;-84
2023/01/30 05:30:54;;;;;;;;;;;;;;;21.14;16.93;97715.19;5054993;28;19916;-85
2023/01/30 05:33:20;;;;;;;;;;;;;;;20.96;16.58;97711.84;5055814;28;19921;-85
2023/01/30 05:35:47;;;;;;;;;;;;;;;21.06;16.99;97705.34;5068183;28;19919;-85
2023/01/30 05:38:13;;;;;;;;;;;;;;;21.17;16.76;97676.03;5065865;28;19917;-85
2023/01/30 05:40:39;;;;;;;;;;;;;;;21.21;16.99;97664.84;5054147;28;19919;-85
2023/01/30 05:43:05;;;;;;;;;;;;;;;20.81;17.01;97671.44;5054446;28;19955;-85
2023/01/30 05:45:32;;;;;;;;;;;;;;;20.71;17.11;97675.97;5054374;28;19917;-85
2023/01/30 05:47:58;;;;;;;;;;;;;;;20.93;17.25;97659.69;5054372;28;19916;-85
2023/01/30 05:50:24;;;;;;;;;;;;;;;21.12;16.56;97659.78;5058830;28;20008;-85
2023/01/30 05:52:50;;;;;;;;;;;;;;;21.11;16.70;97661.00;5059677;28;19920;-85
2023/01/30 05:55:15;;;;;;;;;;;;;;;21.23;16.52;97665.19;5072798;28;19924;-85
2023/01/30 05:57:41;;;;;;;;;;;;;;;21.02;17.17;97668.31;5054306;28;20265;-85
2023/01/30 06:00:09;;;;;;;;;;;;;;;20.88;16.53;97674.91;5054635;28;19929;-85
2023/01/30 06:02:35;;;;;;;;;;;;;;;20.93;16.69;97668.06;5054240;28;19924;-84
2023/01/30 06:05:01;;;;;;;;;;;;;;;21.19;16.23;97667.28;5060314;28;20007;-85
2023/01/30 06:07:27;;;;;;;;;;;;;;;21.39;16.00;97653.34;5068096;28;19920;-85
2023/01/30 06:09:53;;;;;;;;;;;;;;;21.42;16.58;97647.72;5053799;28;19917;-85
2023/01/30 06:12:19;;;;;;;;;;;;;;;21.42;16.60;97647.72;5052293;28;19917;-84
2023/01/30 06:14:45;;;;;;;;;;;;;;;21.32;16.75;97634.72;5053985;28;20270;-85
2023/01/30 06:17:11;;;;;;;;;;;;;;;21.15;16.92;97628.22;5053768;28;19978;-85
2023/01/30 06:19:37;;;;;;;;;;;;;;;20.86;17.33;97631.91;5053799;28;19943;-84
2023/01/30 06:22:03;;;;;;;;;;;;;;;21.00;16.93;97621.28;5068918;28;19916;-85
2023/01/30 06:24:29;;;;;;;;;;;;;;;20.68;17.37;97619.00;5059808;28;20373;-84
2023/01/30 06:26:55;;;;;;;;;;;;;;;20.68;17.91;97619.00;5073814;28;19963;-85
2023/01/30 06:29:21;;;;;;;;;;;;;;;20.92;17.09;97611.44;5073481;28;19930;-84
2023/01/30 06:31:47;;;;;;;;;;;;;;;21.21;17.19;97604.19;5073910;28;20398;-85
2023/01/30 06:34:13;;;;;;;;;;;;;;;21.48;16.47;97592.13;5074355;28;19969;-85
2023/01/30 06:36:39;;;;;;;;;;;;;;;21.15;16.75;97580.78;5072122;28;19913;-85
2023/01/30 06:39:05;;;;;;;;;;;;;;;20.95;16.70;97573.53;5058046;28;19924;-85
2023/01/30 06:41:31;;;;;;;;;;;;;;;20.64;16.75;97564.50;5053964;28;19917;-85
2023/01/30 06:43:57;;;;;;;;;;;;;;;20.64;17.31;97554.13;5053464;28;19928;-85
2023/01/30 06:46:23;;;;;;;;;;;;;;;20.56;16.95;97552.66;5053139;28;19970;-84
2023/01/30 06:48:49;;;;;;;;;;;;;;;19.72;17.15;97568.56;5053388;28;19975;-85
2023/01/30 06:51:15;;;;;;;;;;;;;;;20.09;16.85;97564.91;5053177;28;19970;-84
2023/01/30 06:53:41;;;;;;;;;;;;;;;20.34;16.93;97533.91;5053395;28;19970;-85
2023/01/30 06:56:07;;;;;;;;;;;;;;;20.85;17.19;97533.44;5053321;28;19921;-84
2023/01/30 06:58:33;;;;;;;;;;;;;;;20.79;17.15;97537.16;5059912;28;19928;-84
2023/01/30 07:01:00;;;;;;;;;;;;;;;20.56;16.39;97557.47;5073762;28;19925;-84
2023/01/30 07:03:26;;;;;;;;;;;;;;;19.52;16.91;97548.13;5074119;28;19916;-84
2023/01/30 07:05:52;;;;;;;;;;;;;;;19.54;16.87;97556.88;5057100;28;20054;-84
2023/01/30 07:08:18;;;;;;;;;;;;;;;19.89;17.77;97545.28;5059790;28;19928;-84
2023/01/30 07:10:45;;;;;;;;;;;;;;;20.54;17.37;97545.91;5077781;28;19916;-84
2023/01/30 07:13:11;;;;;;;;;;;;;;;20.90;17.14;97534.94;5077116;28;19916;-84
2023/01/30 07:15:38;;;;;;;;;;;;;;;20.76;17.11;97538.00;5070412;28;19979;-84
2023/01/30 07:18:04;;;;;;;;;;;;;;;21.38;17.06;97534.50;5057046;28;19916;-84
2023/01/30 07:20:30;;;;;;;;;;;;;;;20.95;16.98;97524.09;5056763;28;19917;-84
2023/01/30 07:22:56;;;;;;;;;;;;;;;20.63;17.19;97505.13;5057133;28;19921;-84
2023/01/30 07:25:23;;;;;;;;;;;;;;;20.35;17.03;97504.81;5056960;28;20346;-84
2023/01/30 07:27:52;;;;;;;;;;;;;;;21.32;16.89;97493.09;5056926;28;19917;-84
2023/01/30 07:30:19;;;;;;;;;;;;;;;21.34;16.84;97489.88;5056699;28;19925;-84
2023/01/30 07:32:48;;;;;;;;;;;;;;;21.51;16.33;97497.09;5065310;28;19925;-84
2023/01/30 07:35:14;;;;;;;;;;;;;;;21.45;16.28;97503.63;5076822;28;20368;-84
2023/01/30 07:37:43;;;;;;;;;;;;;;;20.99;16.62;97496.91;5072637;28;20331;-84
2023/01/30 07:40:09;;;;;;;;;;;;;;;20.48;17.17;97497.44;5056893;28;19917;-84
2023/01/30 07:42:35;;;;;;;;;;;;;;;20.87;16.97;97496.72;5056768;28;19916;-84
2023/01/30 07:45:01;;;;;;;;;;;;;;;20.17;17.65;97507.84;5070912;28;19970;-84
2023/01/30 07:47:27;;;;;;;;;;;;;;;20.02;17.23;97503.72;5076711;28;19920;-83
2023/01/30 07:49:53;;;;;;;;;;;;;;;20.57;17.13;97506.03;5075343;28;19922;-84
2023/01/30 07:52:19;;;;;;;;;;;;;;;20.40;17.48;97521.03;5076737;28;20376;-83
2023/01/30 07:54:45;;;;;;;;;;;;;;;19.05;18.61;97524.78;5076412;28;19916;-83
2023/01/30 07:57:11;;;;;;;;;;;;;;;19.77;17.61;97517.19;5076451;28;19916;-84
2023/01/30 07:59:37;;;;;;;;;;;;;;;19.42;18.36;97509.31;5076720;28;19929;-84
2023/01/30 08:02:04;;;;;;;;;;;;;;;19.72;18.42;97501.72;5076737;28;19923;-83
2023/01/30 08:04:30;;;;;;;;;;;;;;;19.66;17.05;97495.06;5065714;28;19959;-84
2023/01/30 08:06:56;;;;;;;;;;;;;;;20.69;17.85;97494.28;5056963;28;19917;-84
2023/01/30 08:09:22;;;;;;;;;;;;;;;20.15;17.70;97493.53;5056436;28;19924;-84
2023/01/30 08:11:48;;;;;;;;;;;;;;;20.74;17.24;97501.38;5055997;28;19917;-84
2023/01/30 08:14:14;;;;;;;;;;;;;;;21.10;17.41;97496.72;5055208;28;19924;-84
2023/01/30 08:16:40;;;;;;;;;;;;;;;20.95;17.39;97487.81;5055863;28;19917;-84
2023/01/30 08:19:06;;;;;;;;;;;;;;;20.93;17.81;97486.66;5055930;28;19928;-84
2023/01/30 08:21:32;;;;;;;;;;;;;;;21.42;17.32;97484.94;5056046;28;19921;-84
2023/01/30 08:23:58;;;;;;;;;;;;;;;21.21;17.29;97481.34;5065836;28;20380;-84
2023/01/30 08:26:24;;;;;;;;;;;;;;;21.48;17.34;97475.63;5075830;28;19917;-84
2023/01/30 08:28:50;;;;;;;;;;;;;;;22.12;17.24;97471.44;5075370;28;19948;-84
2023/01/30 08:31:16;;;;;;;;;;;;;;;21.08;17.38;97472.03;5075875;28;20368;-84
2023/01/30 08:33:43;;;;;;;;;;;;;;;21.58;17.59;97469.03;5075904;28;20006;-84
2023/01/30 08:36:09;;;;;;;;;;;;;;;20.90;17.50;97471.56;5076246;28;19927;-84
2023/01/30 08:38:35;;;;;;;;;;;;;;;21.42;17.26;97471.75;5064254;28;19952;-84
2023/01/30 08:41:03;;;;;;;;;;;;;;;21.92;17.09;97458.28;5056052;28;20372;-84
2023/01/30 08:43:29;;;;;;;;;;;;;;;21.34;18.13;97453.56;5055783;28;20015;-84
2023/01/30 08:45:55;;;;;;;;;;;;;;;20.95;18.23;97434.00;5054901;28;19963;-84
2023/01/30 08:48:22;;;;;;;;;;;;;;;20.54;19.43;97426.78;5055105;28;20020;-84
2023/01/30 08:50:55;;;;;;;;;;;;;;;21.07;18.06;97433.41;5055282;28;20367;-85
2023/01/30 08:53:21;;;;;;;;;;;;;;;21.21;18.12;97433.88;5055318;28;19971;-84
2023/01/30 08:55:51;;;;;;;;;;;;;;;20.45;18.36;97426.56;5055363;28;20399;-84
2023/01/30 08:58:17;;;;;;;;;;;;;;;20.47;18.93;97438.06;5067856;28;20018;-85
2023/01/30 09:00:43;;;;;;;;;;;;;;;19.75;19.32;97444.38;5075253;28;19955;-84
2023/01/30 09:03:10;;;;;;;;;;;;;;;19.75;19.93;97450.75;5067952;28;19917;-84
2023/01/30 09:05:37;;;;;;;;;;;;;;;18.02;21.62;97446.28;5055177;28;19916;-84
2023/01/30 09:08:03;;;;;;;;;;;;;;;18.23;20.77;97439.75;5055812;28;20291;-84
2023/01/30 09:10:29;;;;;;;;;;;;;;;18.96;20.53;97429.91;5055106;28;19917;-85
2023/01/30 09:12:55;;;;;;;;;;;;;;;19.65;21.29;97420.28;5054077;28;20341;-85
2023/01/30 09:15:22;;;;;;;;;;;;;;;19.77;20.35;97405.75;5055516;28;19921;-85
2023/01/30 09:17:48;;;;;;;;;;;;;;;19.57;19.94;97400.09;5054717;28;19927;-85
2023/01/30 09:20:14;;;;;;;;;;;;;;;20.41;19.38;97403.53;5055248;28;20445;-84
2023/01/30 09:22:40;;;;;;;;;;;;;;;20.77;19.20;97398.06;5054966;28;19928;-85
2023/01/30 09:25:07;;;;;;;;;;;;;;;21.24;18.67;97402.31;5054959;28;19926;-85
2023/01/30 09:27:33;;;;;;;;;;;;;;;20.76;18.21;97409.66;5055015;28;19924;-85
2023/01/30 09:29:59;;;;;;;;;;;;;;;21.37;18.79;97401.66;5054061;28;20368;-85
2023/01/30 09:32:25;;;;;;;;;;;;;;;21.11;19.11;97400.63;5068223;28;20392;-85
2023/01/30 09:34:51;;;;;;;;;;;;;;;20.63;19.42;97392.78;5075304;28;19979;-85
2023/01/30 09:37:17;;;;;;;;;;;;;;;20.71;19.04;97394.22;5065950;28;19924;-85
2023/01/30 09:39:43;;;;;;;;;;;;;;;20.79;18.84;97390.06;5074888;28;20005;-85
2023/01/30 09:42:27;;;;;;;;;;;;;;;19.26;20.70;97387.38;5061187;28;19923;-85
2023/01/30 09:45:13;;;;;;;;;;;;;;;19.10;21.51;97373.28;5054358;28;19917;-85
2023/01/30 09:47:53;;;;;;;;;;;;;;;19.77;20.23;97369.56;5054429;28;19924;-85
2023/01/30 09:50:29;;;;;;;;;;;;;;;18.44;21.72;97367.28;5054087;28;20360;-85
2023/01/30 09:53:02;;;;;;;;;;;;;;;20.44;19.86;97354.50;5054492;28;19928;-85
2023/01/30 09:55:32;;;;;;;;;;;;;;;20.80;19.07;97349.78;5053993;28;19927;-85
2023/01/30 09:57:59;;;;;;;;;;;;;;;19.00;21.33;97352.75;5054531;28;20338;-85
2023/01/30 10:00:40;;;;;;;;;;;;;;;19.98;19.93;97367.22;5057018;28;19929;-85
2023/01/30 10:03:06;;;;;;;;;;;;;;;20.20;19.40;97352.91;5060725;28;20380;-85
2023/01/30 10:05:47;;;;;;;;;;;;;;;20.20;21.48;97347.34;5060812;28;19920;-86
2023/01/30 10:08:25;;;;;;;;;;;;;;;19.74;20.64;97348.13;5074178;28;19987;-85
2023/01/30 10:11:09;;;;;;;;;;;;;;;19.81;20.48;97348.03;5074060;28;19968;-86
2023/01/30 10:13:45;;;;;;;;;;;;;;;19.82;20.38;97333.66;5073918;28;20078;-86
2023/01/30 10:16:11;;;;;;;;;;;;;;;19.39;20.96;97335.56;5070798;28;20014;-85
2023/01/30 10:18:44;;;;;;;;;;;;;;;20.75;19.75;97330.75;5074245;28;19923;-86
2023/01/30 10:21:15;;;;;;;;;;;;;;;19.64;20.47;97327.59;5073928;28;19923;-86
2023/01/30 10:23:46;;;;;;;;;;;;;;;21.07;19.55;97310.59;5057649;28;19917;-85
2023/01/30 10:26:15;;;;;;;;;;;;;;;21.31;19.79;97298.06;5053886;28;20284;-85
2023/01/30 10:29:01;;;;;;;;;;;;;;;20.90;20.58;97292.97;5052993;28;20363;-86
2023/01/30 10:31:31;;;;;;;;;;;;;;;19.48;22.04;97293.25;5053254;28;20422;-85
2023/01/30 10:34:02;;;;;;;;;;;;;;;19.38;21.15;97285.84;5053638;28;19917;-85
2023/01/30 10:36:33;;;;;;;;;;;;;;;19.92;21.14;97285.34;5053286;28;19987;-86
2023/01/30 10:39:01;;;;;;;;;;;;;;;20.29;21.26;97292.63;5055446;28;20675;-85
2023/01/30 10:41:33;;;;;;;;;;;;;;;21.07;20.02;97277.91;5054418;28;19916;-86
2023/01/30 10:44:05;;;;;;;;;;;;;;;19.89;20.35;97269.47;5053544;28;19917;-86
2023/01/30 10:46:38;;;;;;;;;;;;;;;20.83;20.22;97247.69;5053429;28;19959;-86
2023/01/30 10:49:05;;;;;;;;;;;;;;;21.02;20.24;97255.25;5053549;28;20372;-86
2023/01/30 10:51:44;;;;;;;;;;;;;;;20.93;20.88;97255.06;5053569;28;19917;-86
2023/01/30 10:54:23;;;;;;;;;;;;;;;21.13;20.23;97253.81;5053557;28;19917;-86
2023/01/30 10:57:10;;;;;;;;;;;;;;;21.03;20.49;97246.44;5061887;28;19955;-86
2023/01/30 10:59:55;;;;;;;;;;;;;;;20.24;20.24;97247.75;5073365;28;19924;-86
2023/01/30 11:02:23;;;;;;;;;;;;;;;20.10;20.36;97259.13;5073093;28;19917;-86
2023/01/30 11:04:58;;;;;;;;;;;;;;;20.54;20.29;97256.69;5073343;28;19916;-86
2023/01/30 11:07:24;;;;;;;;;;;;;;;20.10;21.56;97256.34;5073671;28;19920;-85
2023/01/30 11:09:50;;;;;;;;;;;;;;;20.70;20.82;97250.38;5073574;28;20429;-85
2023/01/30 11:12:17;;;;;;;;;;;;;;;20.44;20.68;97242.97;5073318;28;19916;-85
2023/01/30 11:14:52;;;;;;;;;;;;;;;19.82;21.34;97244.53;5072543;28;19917;-86
2023/01/30 11:17:19;;;;;;;;;;;;;;;21.41;20.03;97235.59;5073525;28;19927;-85
2023/01/30 11:19:53;;;;;;;;;;;;;;;21.28;20.29;97221.53;5073284;28;20372;-86
2023/01/30 11:22:19;;;;;;;;;;;;;;;21.13;20.06;97220.31;5071929;28;19944;-85
2023/01/30 11:24:45;;;;;;;;;;;;;;;21.47;19.95;97213.53;5073196;28;19923;-86
2023/01/30 11:27:23;;;;;;;;;;;;;;;21.70;19.99;97207.75;5073133;28;19917;-86
2023/01/30 11:29:51;;;;;;;;;;;;;;;21.70;20.11;97204.94;5072384;28;20371;-86
2023/01/30 11:32:27;;;;;;;;;;;;;;;21.11;20.55;97206.03;5053228;28;19916;-85
2023/01/30 11:35:02;;;;;;;;;;;;;;;20.44;20.88;97212.31;5053013;28;20395;-86
2023/01/30 11:37:36;;;;;;;;;;;;;;;19.49;21.58;97206.53;5052648;28;19921;-86
2023/01/30 11:40:22;;;;;;;;;;;;;;;19.70;22.08;97202.56;5071468;28;19923;-85
2023/01/30 11:42:49;;;;;;;;;;;;;;;20.89;21.21;97201.31;5072285;28;19931;-85
2023/01/30 11:45:18;;;;;;;;;;;;;;;21.10;20.24;97189.69;5072960;28;19923;-86
2023/01/30 11:47:54;;;;;;;;;;;;;;;20.38;22.43;97194.50;5064326;28;19921;-85
2023/01/30 11:50:22;;;;;;;;;;;;;;;21.54;20.32;97182.63;5055133;28;20364;-85
2023/01/30 11:52:48;;;;;;;;;;;;;;;20.96;20.55;97173.25;5061268;28;19926;-85
2023/01/30 11:55:17;;;;;;;;;;;;;;;21.31;20.16;97178.78;5076194;28;20450;-86
2023/01/30 11:57:46;;;;;;;;;;;;;;;21.37;20.28;97186.66;5076566;28;19916;-85
2023/01/30 12:00:15;;;;;;;;;;;;;;;20.01;21.03;97184.47;5076754;28;20300;-86
2023/01/30 12:02:43;;;;;;;;;;;;;;;19.77;21.78;97182.94;5064272;28;20376;-85
2023/01/30 12:05:24;;;;;;;;;;;;;;;19.18;22.72;97180.00;5057309;28;19917;-85
2023/01/30 12:07:51;;;;;;;;;;;;;;;19.17;22.99;97175.63;5056263;28;19917;-85
2023/01/30 12:10:22;;;;;;;;;;;;;;;19.38;22.79;97172.53;5056066;28;19971;-86
2023/01/30 12:12:53;;;;;;;;;;;;;;;19.40;23.62;97164.53;5056622;28;19994;-85
2023/01/30 12:15:22;;;;;;;;;;;;;;;19.36;23.63;97163.81;5056246;28;20368;-86
2023/01/30 12:17:56;;;;;;;;;;;;;;;18.95;22.92;97154.97;5056779;28;19975;-86
2023/01/30 12:20:27;;;;;;;;;;;;;;;19.56;22.72;97150.72;5056073;28;19924;-85
2023/01/30 12:23:03;;;;;;;;;;;;;;;20.62;21.96;97142.97;5072559;28;19916;-86
2023/01/30 12:25:35;;;;;;;;;;;;;;;20.50;21.88;97143.66;5055535;28;20372;-86
2023/01/30 12:28:06;;;;;;;;;;;;;;;20.13;21.94;97147.59;5055700;28;19916;-86
2023/01/30 12:30:39;;;;;;;;;;;;;;;19.97;23.01;97141.97;5055534;28;19982;-86
2023/01/30 12:33:09;;;;;;;;;;;;;;;20.44;22.22;97137.78;5055815;28;19923;-86
2023/01/30 12:35:48;;;;;;;;;;;;;;;21.18;20.85;97127.69;5055502;28;20291;-86
2023/01/30 12:38:20;;;;;;;;;;;;;;;21.85;20.56;97137.09;5065164;28;20435;-86
2023/01/30 12:40:46;;;;;;;;;;;;;;;19.85;23.90;97132.25;5055674;28;19959;-86
2023/01/30 12:43:12;;;;;;;;;;;;;;;19.88;23.09;97133.41;5056062;28;19917;-86
2023/01/30 12:45:45;;;;;;;;;;;;;;;20.88;21.96;97138.38;5055623;28;19916;-86
2023/01/30 12:48:20;;;;;;;;;;;;;;;19.84;23.08;97127.88;5071102;28;19924;-85
2023/01/30 12:50:49;;;;;;;;;;;;;;;19.70;22.37;97130.16;5070919;28;20445;-85
2023/01/30 12:53:15;;;;;;;;;;;;;;;20.14;22.92;97115.72;5055320;28;19917;-85
2023/01/30 12:55:48;;;;;;;;;;;;;;;20.19;22.52;97114.44;5063053;28;19923;-85
2023/01/30 12:58:14;;;;;;;;;;;;;;;18.70;23.34;97110.03;5075256;28;20067;-85
2023/01/30 13:00:59;;;;;;;;;;;;;;;19.54;22.49;97116.94;5071353;28;19952;-86
2023/01/30 13:03:43;;;;;;;;;;;;;;;18.93;23.72;97118.41;5055129;28;19971;-85